sensor_id;sensor_type;location;lat;lon;timestamp;temperature;humidity
17565;DHT22;62994;52.126;5.596;2022-10-19T00:02:25;10.50;99.90
17565;DHT22;62994;52.126;5.596;2022-10-19T00:04:52;10.50;99.90
17565;DHT22;62994;52.126;5.596;2022-10-19T00:07:20;10.50;99.90
17565;DHT22;62994;52.126;5.596;2022-10-19T00:09:47;10.50;99.90
17565;DHT22;62994;52.126;5.596;2022-10-19T00:12:14;10.50;99.90
17565;DHT22;62994;52.126;5.596;2022-10-19T00:14:41;10.50;99.90
17565;DHT22;62994;52.126;5.596;2022-10-19T00:17:08;10.40;99.90
17565;DHT22;62994;52.126;5.596;2022-10-19T00:19:35;10.40;99.90
17565;DHT22;62994;52.126;5.596;2022-10-19T00:22:02;10.40;99.90
17565;DHT22;62994;52.126;5.596;2022-10-19T00:24:31;10.30;99.90
17565;DHT22;62994;52.126;5.596;2022-10-19T00:26:58;10.40;99.90
17565;DHT22;62994;52.126;5.596;2022-10-19T00:29:25;10.30;99.90
17565;DHT22;62994;52.126;5.596;2022-10-19T00:31:52;10.30;99.90
17565;DHT22;62994;52.126;5.596;2022-10-19T00:34:19;10.30;99.90
17565;DHT22;62994;52.126;5.596;2022-10-19T00:36:46;10.30;99.90
17565;DHT22;62994;52.126;5.596;2022-10-19T00:39:15;10.30;99.90
17565;DHT22;62994;52.126;5.596;2022-10-19T00:41:45;10.30;99.90
17565;DHT22;62994;52.126;5.596;2022-10-19T00:47:12;10.20;99.90
17565;DHT22;62994;52.126;5.596;2022-10-19T00:49:42;10.20;99.90
17565;DHT22;62994;52.126;5.596;2022-10-19T00:52:13;10.20;99.90
17565;DHT22;62994;52.126;5.596;2022-10-19T00:54:42;10.20;99.90
17565;DHT22;62994;52.126;5.596;2022-10-19T00:57:11;10.20;99.90
17565;DHT22;62994;52.126;5.596;2022-10-19T00:59:39;10.10;99.90
17565;DHT22;62994;52.126;5.596;2022-10-19T01:02:08;10.10;99.90
17565;DHT22;62994;52.126;5.596;2022-10-19T01:04:38;10.00;99.90
17565;DHT22;62994;52.126;5.596;2022-10-19T01:07:07;10.00;99.90
17565;DHT22;62994;52.126;5.596;2022-10-19T01:09:34;10.00;99.90
17565;DHT22;62994;52.126;5.596;2022-10-19T01:12:07;10.00;99.90
17565;DHT22;62994;52.126;5.596;2022-10-19T01:14:49;10.00;99.90
17565;DHT22;62994;52.126;5.596;2022-10-19T01:17:27;10.00;99.90
17565;DHT22;62994;52.126;5.596;2022-10-19T01:23:45;9.90;99.90
17565;DHT22;62994;52.126;5.596;2022-10-19T01:26:37;9.90;99.90
17565;DHT22;62994;52.126;5.596;2022-10-19T01:29:16;9.90;99.90
17565;DHT22;62994;52.126;5.596;2022-10-19T01:31:47;9.80;99.90
17565;DHT22;62994;52.126;5.596;2022-10-19T01:34:20;9.80;99.90
17565;DHT22;62994;52.126;5.596;2022-10-19T01:36:56;9.80;99.90
17565;DHT22;62994;52.126;5.596;2022-10-19T01:39:42;9.80;99.90
17565;DHT22;62994;52.126;5.596;2022-10-19T01:42:29;9.70;99.90
17565;DHT22;62994;52.126;5.596;2022-10-19T01:45:10;9.70;99.90
17565;DHT22;62994;52.126;5.596;2022-10-19T01:47:52;9.70;99.90
17565;DHT22;62994;52.126;5.596;2022-10-19T01:50:34;9.60;99.90
17565;DHT22;62994;52.126;5.596;2022-10-19T01:53:13;9.60;99.90
17565;DHT22;62994;52.126;5.596;2022-10-19T01:55:51;9.60;99.90
17565;DHT22;62994;52.126;5.596;2022-10-19T01:58:24;9.60;99.90
17565;DHT22;62994;52.126;5.596;2022-10-19T02:00:58;9.60;99.90
17565;DHT22;62994;52.126;5.596;2022-10-19T02:03:38;9.60;99.90
17565;DHT22;62994;52.126;5.596;2022-10-19T02:06:10;9.60;99.90
17565;DHT22;62994;52.126;5.596;2022-10-19T02:08:51;9.60;99.90
17565;DHT22;62994;52.126;5.596;2022-10-19T02:11:23;9.60;99.90
17565;DHT22;62994;52.126;5.596;2022-10-19T02:14:04;9.50;99.90
17565;DHT22;62994;52.126;5.596;2022-10-19T02:16:48;9.50;99.90
17565;DHT22;62994;52.126;5.596;2022-10-19T02:19:21;9.50;99.90
17565;DHT22;62994;52.126;5.596;2022-10-19T02:21:54;9.50;99.90
17565;DHT22;62994;52.126;5.596;2022-10-19T02:24:36;9.40;99.90
17565;DHT22;62994;52.126;5.596;2022-10-19T02:27:11;9.40;99.90
17565;DHT22;62994;52.126;5.596;2022-10-19T02:29:56;9.40;99.90
17565;DHT22;62994;52.126;5.596;2022-10-19T02:32:27;9.50;99.90
17565;DHT22;62994;52.126;5.596;2022-10-19T02:34:58;9.40;99.90
17565;DHT22;62994;52.126;5.596;2022-10-19T02:37:31;9.40;99.90
17565;DHT22;62994;52.126;5.596;2022-10-19T02:40:15;9.40;99.90
17565;DHT22;62994;52.126;5.596;2022-10-19T02:42:57;9.40;99.90
17565;DHT22;62994;52.126;5.596;2022-10-19T02:45:51;9.30;99.90
17565;DHT22;62994;52.126;5.596;2022-10-19T02:48:28;9.30;99.90
17565;DHT22;62994;52.126;5.596;2022-10-19T02:51:37;9.30;99.90
17565;DHT22;62994;52.126;5.596;2022-10-19T02:54:22;9.20;99.90
17565;DHT22;62994;52.126;5.596;2022-10-19T02:56:55;9.20;99.90
17565;DHT22;62994;52.126;5.596;2022-10-19T02:59:34;9.20;99.90
17565;DHT22;62994;52.126;5.596;2022-10-19T03:02:08;9.20;99.90
17565;DHT22;62994;52.126;5.596;2022-10-19T03:04:37;9.10;99.90
17565;DHT22;62994;52.126;5.596;2022-10-19T03:07:13;9.10;99.90
17565;DHT22;62994;52.126;5.596;2022-10-19T03:10:00;9.10;99.90
17565;DHT22;62994;52.126;5.596;2022-10-19T03:12:30;9.20;99.90
17565;DHT22;62994;52.126;5.596;2022-10-19T03:15:03;9.30;99.90
17565;DHT22;62994;52.126;5.596;2022-10-19T03:17:41;9.20;99.90
17565;DHT22;62994;52.126;5.596;2022-10-19T03:20:24;9.20;99.90
17565;DHT22;62994;52.126;5.596;2022-10-19T03:22:54;9.00;99.90
17565;DHT22;62994;52.126;5.596;2022-10-19T03:25:34;9.00;99.90
17565;DHT22;62994;52.126;5.596;2022-10-19T03:28:18;8.90;99.90
17565;DHT22;62994;52.126;5.596;2022-10-19T03:30:51;8.90;99.90
17565;DHT22;62994;52.126;5.596;2022-10-19T03:33:26;8.90;99.90
17565;DHT22;62994;52.126;5.596;2022-10-19T03:36:12;8.80;99.90
17565;DHT22;62994;52.126;5.596;2022-10-19T03:38:43;8.80;99.90
17565;DHT22;62994;52.126;5.596;2022-10-19T03:41:19;8.80;99.90
17565;DHT22;62994;52.126;5.596;2022-10-19T03:44:04;8.80;99.90
17565;DHT22;62994;52.126;5.596;2022-10-19T03:46:40;8.80;99.90
17565;DHT22;62994;52.126;5.596;2022-10-19T03:49:11;8.80;99.90
17565;DHT22;62994;52.126;5.596;2022-10-19T03:51:41;8.80;99.90
17565;DHT22;62994;52.126;5.596;2022-10-19T03:54:15;8.90;99.90
17565;DHT22;62994;52.126;5.596;2022-10-19T03:56:54;9.00;99.90
17565;DHT22;62994;52.126;5.596;2022-10-19T03:59:31;9.00;99.90
17565;DHT22;62994;52.126;5.596;2022-10-19T04:02:07;9.00;99.90
17565;DHT22;62994;52.126;5.596;2022-10-19T04:04:45;8.90;99.90
17565;DHT22;62994;52.126;5.596;2022-10-19T04:07:30;8.80;99.90
17565;DHT22;62994;52.126;5.596;2022-10-19T04:09:59;8.80;99.90
17565;DHT22;62994;52.126;5.596;2022-10-19T04:15:30;8.70;99.90
17565;DHT22;62994;52.126;5.596;2022-10-19T04:18:15;8.70;99.90
17565;DHT22;62994;52.126;5.596;2022-10-19T04:20:54;8.70;99.90
17565;DHT22;62994;52.126;5.596;2022-10-19T04:23:40;8.60;99.90
17565;DHT22;62994;52.126;5.596;2022-10-19T04:26:18;8.60;99.90
17565;DHT22;62994;52.126;5.596;2022-10-19T04:29:10;8.60;99.90
17565;DHT22;62994;52.126;5.596;2022-10-19T04:31:44;8.60;99.90
17565;DHT22;62994;52.126;5.596;2022-10-19T04:34:16;8.60;99.90
17565;DHT22;62994;52.126;5.596;2022-10-19T04:36:48;8.50;99.90
17565;DHT22;62994;52.126;5.596;2022-10-19T04:39:26;8.50;99.90
17565;DHT22;62994;52.126;5.596;2022-10-19T04:41:57;8.50;99.90
17565;DHT22;62994;52.126;5.596;2022-10-19T04:47:14;8.50;99.90
17565;DHT22;62994;52.126;5.596;2022-10-19T04:49:56;8.50;99.90
17565;DHT22;62994;52.126;5.596;2022-10-19T04:52:42;8.50;99.90
17565;DHT22;62994;52.126;5.596;2022-10-19T04:55:20;8.40;99.90
17565;DHT22;62994;52.126;5.596;2022-10-19T04:58:00;8.40;99.90
17565;DHT22;62994;52.126;5.596;2022-10-19T05:00:49;8.40;99.90
17565;DHT22;62994;52.126;5.596;2022-10-19T05:03:21;8.40;99.90
17565;DHT22;62994;52.126;5.596;2022-10-19T05:08:44;8.40;99.90
17565;DHT22;62994;52.126;5.596;2022-10-19T05:11:20;8.30;99.90
17565;DHT22;62994;52.126;5.596;2022-10-19T05:14:04;8.30;99.90
17565;DHT22;62994;52.126;5.596;2022-10-19T05:16:42;8.30;99.90
17565;DHT22;62994;52.126;5.596;2022-10-19T05:19:14;8.30;99.90
17565;DHT22;62994;52.126;5.596;2022-10-19T05:21:55;8.20;99.90
17565;DHT22;62994;52.126;5.596;2022-10-19T05:24:29;8.20;99.90
17565;DHT22;62994;52.126;5.596;2022-10-19T05:27:00;8.20;99.90
17565;DHT22;62994;52.126;5.596;2022-10-19T05:29:47;8.10;99.90
17565;DHT22;62994;52.126;5.596;2022-10-19T05:32:20;8.10;99.90
17565;DHT22;62994;52.126;5.596;2022-10-19T05:34:56;8.00;99.90
17565;DHT22;62994;52.126;5.596;2022-10-19T05:37:35;8.00;99.90
17565;DHT22;62994;52.126;5.596;2022-10-19T05:40:11;8.00;99.90
17565;DHT22;62994;52.126;5.596;2022-10-19T05:42:48;8.00;99.90
17565;DHT22;62994;52.126;5.596;2022-10-19T05:45:20;7.90;99.90
17565;DHT22;62994;52.126;5.596;2022-10-19T05:48:02;7.90;99.90
17565;DHT22;62994;52.126;5.596;2022-10-19T05:50:51;7.90;99.90
17565;DHT22;62994;52.126;5.596;2022-10-19T05:53:26;7.70;99.90
17565;DHT22;62994;52.126;5.596;2022-10-19T05:59:16;7.70;99.90
17565;DHT22;62994;52.126;5.596;2022-10-19T06:01:50;7.70;99.90
17565;DHT22;62994;52.126;5.596;2022-10-19T06:04:28;7.70;99.90
17565;DHT22;62994;52.126;5.596;2022-10-19T06:07:05;7.60;99.90
17565;DHT22;62994;52.126;5.596;2022-10-19T06:12:28;7.70;99.90
17565;DHT22;62994;52.126;5.596;2022-10-19T06:15:03;7.70;99.90
17565;DHT22;62994;52.126;5.596;2022-10-19T06:17:43;7.70;99.90
17565;DHT22;62994;52.126;5.596;2022-10-19T06:20:18;7.60;99.90
17565;DHT22;62994;52.126;5.596;2022-10-19T06:23:11;7.70;99.90
17565;DHT22;62994;52.126;5.596;2022-10-19T06:25:46;7.70;99.90
17565;DHT22;62994;52.126;5.596;2022-10-19T06:28:18;7.60;99.90
17565;DHT22;62994;52.126;5.596;2022-10-19T06:30:59;7.60;99.90
17565;DHT22;62994;52.126;5.596;2022-10-19T06:33:45;7.60;99.90
17565;DHT22;62994;52.126;5.596;2022-10-19T06:36:32;7.60;99.90
17565;DHT22;62994;52.126;5.596;2022-10-19T06:39:13;7.60;99.90
17565;DHT22;62994;52.126;5.596;2022-10-19T06:42:13;7.60;99.90
17565;DHT22;62994;52.126;5.596;2022-10-19T06:44:58;7.60;99.90
17565;DHT22;62994;52.126;5.596;2022-10-19T06:47:37;7.60;99.90
17565;DHT22;62994;52.126;5.596;2022-10-19T06:50:24;7.50;99.90
17565;DHT22;62994;52.126;5.596;2022-10-19T06:52:59;7.50;99.90
17565;DHT22;62994;52.126;5.596;2022-10-19T06:55:36;7.50;99.90
17565;DHT22;62994;52.126;5.596;2022-10-19T06:58:08;7.60;99.90
17565;DHT22;62994;52.126;5.596;2022-10-19T07:00:52;7.60;99.90
17565;DHT22;62994;52.126;5.596;2022-10-19T07:03:44;7.60;99.90
17565;DHT22;62994;52.126;5.596;2022-10-19T07:06:26;7.50;99.90
17565;DHT22;62994;52.126;5.596;2022-10-19T07:08:53;7.40;99.90
17565;DHT22;62994;52.126;5.596;2022-10-19T07:11:27;7.30;99.90
17565;DHT22;62994;52.126;5.596;2022-10-19T07:13:58;7.30;99.90
17565;DHT22;62994;52.126;5.596;2022-10-19T07:16:31;7.20;99.90
17565;DHT22;62994;52.126;5.596;2022-10-19T07:19:05;7.30;99.90
17565;DHT22;62994;52.126;5.596;2022-10-19T07:21:38;7.30;99.90
17565;DHT22;62994;52.126;5.596;2022-10-19T07:24:10;7.40;99.90
17565;DHT22;62994;52.126;5.596;2022-10-19T07:26:44;7.40;99.90
17565;DHT22;62994;52.126;5.596;2022-10-19T07:29:17;7.60;99.90
17565;DHT22;62994;52.126;5.596;2022-10-19T07:31:53;7.70;99.90
17565;DHT22;62994;52.126;5.596;2022-10-19T07:34:24;7.70;99.90
17565;DHT22;62994;52.126;5.596;2022-10-19T07:37:08;7.70;99.90
17565;DHT22;62994;52.126;5.596;2022-10-19T07:39:37;7.70;99.90
17565;DHT22;62994;52.126;5.596;2022-10-19T07:42:15;7.70;99.90
17565;DHT22;62994;52.126;5.596;2022-10-19T07:44:49;7.80;99.90
17565;DHT22;62994;52.126;5.596;2022-10-19T07:47:30;7.80;99.90
17565;DHT22;62994;52.126;5.596;2022-10-19T07:50:03;7.80;99.90
17565;DHT22;62994;52.126;5.596;2022-10-19T07:52:43;7.80;99.90
17565;DHT22;62994;52.126;5.596;2022-10-19T07:55:26;7.80;99.90
17565;DHT22;62994;52.126;5.596;2022-10-19T07:57:58;7.90;99.90
17565;DHT22;62994;52.126;5.596;2022-10-19T08:00:36;7.90;99.90
17565;DHT22;62994;52.126;5.596;2022-10-19T08:03:17;8.00;99.90
17565;DHT22;62994;52.126;5.596;2022-10-19T08:06:04;8.10;99.90
17565;DHT22;62994;52.126;5.596;2022-10-19T08:08:39;8.10;99.90
17565;DHT22;62994;52.126;5.596;2022-10-19T08:14:17;8.50;99.90
17565;DHT22;62994;52.126;5.596;2022-10-19T08:16:48;8.70;99.90
17565;DHT22;62994;52.126;5.596;2022-10-19T08:19:41;8.80;99.90
17565;DHT22;62994;52.126;5.596;2022-10-19T08:22:18;8.80;99.90
17565;DHT22;62994;52.126;5.596;2022-10-19T08:24:55;8.90;99.90
17565;DHT22;62994;52.126;5.596;2022-10-19T08:27:38;8.90;99.90
17565;DHT22;62994;52.126;5.596;2022-10-19T08:30:14;9.00;99.90
17565;DHT22;62994;52.126;5.596;2022-10-19T08:32:54;9.10;99.90
17565;DHT22;62994;52.126;5.596;2022-10-19T08:35:24;9.20;99.90
17565;DHT22;62994;52.126;5.596;2022-10-19T08:37:58;9.30;99.90
17565;DHT22;62994;52.126;5.596;2022-10-19T08:40:38;9.40;99.90
17565;DHT22;62994;52.126;5.596;2022-10-19T08:43:15;9.60;99.90
17565;DHT22;62994;52.126;5.596;2022-10-19T08:45:57;9.70;99.90
17565;DHT22;62994;52.126;5.596;2022-10-19T08:48:34;9.80;99.90
17565;DHT22;62994;52.126;5.596;2022-10-19T08:51:15;9.90;99.90
17565;DHT22;62994;52.126;5.596;2022-10-19T08:53:50;10.00;99.90
17565;DHT22;62994;52.126;5.596;2022-10-19T08:56:28;10.10;99.90
17565;DHT22;62994;52.126;5.596;2022-10-19T08:59:11;10.30;99.90
17565;DHT22;62994;52.126;5.596;2022-10-19T09:01:51;10.40;99.90
17565;DHT22;62994;52.126;5.596;2022-10-19T09:04:27;10.50;99.90
17565;DHT22;62994;52.126;5.596;2022-10-19T09:07:19;10.60;99.90
17565;DHT22;62994;52.126;5.596;2022-10-19T09:10:02;10.80;99.90
17565;DHT22;62994;52.126;5.596;2022-10-19T09:12:43;10.90;99.90
17565;DHT22;62994;52.126;5.596;2022-10-19T09:15:12;11.10;99.90
17565;DHT22;62994;52.126;5.596;2022-10-19T09:17:54;11.10;99.90
17565;DHT22;62994;52.126;5.596;2022-10-19T09:20:33;11.20;99.90
17565;DHT22;62994;52.126;5.596;2022-10-19T09:23:17;11.40;99.90
17565;DHT22;62994;52.126;5.596;2022-10-19T09:25:51;11.40;99.90
17565;DHT22;62994;52.126;5.596;2022-10-19T09:28:34;11.60;99.90
17565;DHT22;62994;52.126;5.596;2022-10-19T09:31:09;11.60;99.90
17565;DHT22;62994;52.126;5.596;2022-10-19T09:33:59;11.70;99.90
17565;DHT22;62994;52.126;5.596;2022-10-19T09:36:54;11.70;99.90
17565;DHT22;62994;52.126;5.596;2022-10-19T09:39:40;11.90;99.90
17565;DHT22;62994;52.126;5.596;2022-10-19T09:42:19;12.00;99.90
17565;DHT22;62994;52.126;5.596;2022-10-19T09:44:51;12.10;99.90
17565;DHT22;62994;52.126;5.596;2022-10-19T09:47:31;12.10;99.90
17565;DHT22;62994;52.126;5.596;2022-10-19T09:50:08;12.20;99.90
17565;DHT22;62994;52.126;5.596;2022-10-19T09:52:59;12.30;99.90
17565;DHT22;62994;52.126;5.596;2022-10-19T09:55:43;12.40;99.90
17565;DHT22;62994;52.126;5.596;2022-10-19T09:58:25;12.50;99.90
17565;DHT22;62994;52.126;5.596;2022-10-19T10:00:56;12.50;99.90
17565;DHT22;62994;52.126;5.596;2022-10-19T10:03:29;12.60;99.90
17565;DHT22;62994;52.126;5.596;2022-10-19T10:06:23;12.70;99.90
17565;DHT22;62994;52.126;5.596;2022-10-19T10:08:54;12.70;99.90
17565;DHT22;62994;52.126;5.596;2022-10-19T10:11:39;12.80;99.90
17565;DHT22;62994;52.126;5.596;2022-10-19T10:14:17;12.80;99.90
17565;DHT22;62994;52.126;5.596;2022-10-19T10:17:02;12.90;99.90
17565;DHT22;62994;52.126;5.596;2022-10-19T10:22:53;13.00;99.90
17565;DHT22;62994;52.126;5.596;2022-10-19T10:25:40;13.10;99.90
17565;DHT22;62994;52.126;5.596;2022-10-19T10:28:22;13.20;99.90
17565;DHT22;62994;52.126;5.596;2022-10-19T10:30:59;13.20;99.90
17565;DHT22;62994;52.126;5.596;2022-10-19T10:33:30;13.30;99.90
17565;DHT22;62994;52.126;5.596;2022-10-19T10:36:04;13.40;99.90
17565;DHT22;62994;52.126;5.596;2022-10-19T10:38:44;13.40;99.90
17565;DHT22;62994;52.126;5.596;2022-10-19T10:41:18;13.40;99.90
17565;DHT22;62994;52.126;5.596;2022-10-19T10:44:01;13.40;99.90
17565;DHT22;62994;52.126;5.596;2022-10-19T10:46:49;13.50;99.90
17565;DHT22;62994;52.126;5.596;2022-10-19T10:49:21;13.50;99.90
17565;DHT22;62994;52.126;5.596;2022-10-19T10:52:10;13.60;99.90
17565;DHT22;62994;52.126;5.596;2022-10-19T10:54:57;13.60;99.90
17565;DHT22;62994;52.126;5.596;2022-10-19T10:57:31;13.60;99.90
17565;DHT22;62994;52.126;5.596;2022-10-19T11:00:15;13.70;99.90
17565;DHT22;62994;52.126;5.596;2022-10-19T11:02:52;13.70;99.90
17565;DHT22;62994;52.126;5.596;2022-10-19T11:05:28;13.80;99.90
17565;DHT22;62994;52.126;5.596;2022-10-19T11:08:08;13.80;99.90
17565;DHT22;62994;52.126;5.596;2022-10-19T11:10:44;13.90;99.90
17565;DHT22;62994;52.126;5.596;2022-10-19T11:13:26;13.90;99.90
17565;DHT22;62994;52.126;5.596;2022-10-19T11:16:05;13.90;99.90
17565;DHT22;62994;52.126;5.596;2022-10-19T11:18:48;14.00;99.90
17565;DHT22;62994;52.126;5.596;2022-10-19T11:21:31;14.00;99.90
17565;DHT22;62994;52.126;5.596;2022-10-19T11:24:12;14.10;99.90
17565;DHT22;62994;52.126;5.596;2022-10-19T11:27:07;14.10;99.90
17565;DHT22;62994;52.126;5.596;2022-10-19T11:29:52;14.10;99.90
17565;DHT22;62994;52.126;5.596;2022-10-19T11:32:41;14.10;99.90
17565;DHT22;62994;52.126;5.596;2022-10-19T11:35:24;14.20;99.90
17565;DHT22;62994;52.126;5.596;2022-10-19T11:38:01;14.30;99.90
17565;DHT22;62994;52.126;5.596;2022-10-19T11:40:36;14.40;99.90
17565;DHT22;62994;52.126;5.596;2022-10-19T11:43:10;14.40;99.90
17565;DHT22;62994;52.126;5.596;2022-10-19T11:45:47;14.50;99.90
17565;DHT22;62994;52.126;5.596;2022-10-19T11:48:28;14.50;99.90
17565;DHT22;62994;52.126;5.596;2022-10-19T11:51:03;14.60;99.90
17565;DHT22;62994;52.126;5.596;2022-10-19T11:53:42;14.70;99.90
17565;DHT22;62994;52.126;5.596;2022-10-19T11:56:18;14.80;99.90
17565;DHT22;62994;52.126;5.596;2022-10-19T11:58:53;14.90;99.90
17565;DHT22;62994;52.126;5.596;2022-10-19T12:01:38;15.00;99.90
17565;DHT22;62994;52.126;5.596;2022-10-19T12:04:35;15.00;99.90
17565;DHT22;62994;52.126;5.596;2022-10-19T12:07:18;15.10;99.90
17565;DHT22;62994;52.126;5.596;2022-10-19T12:09:59;15.20;99.90
17565;DHT22;62994;52.126;5.596;2022-10-19T12:12:35;15.20;99.90
17565;DHT22;62994;52.126;5.596;2022-10-19T12:15:21;15.30;99.90
17565;DHT22;62994;52.126;5.596;2022-10-19T12:17:52;15.40;99.90
17565;DHT22;62994;52.126;5.596;2022-10-19T12:20:25;15.50;99.90
17565;DHT22;62994;52.126;5.596;2022-10-19T12:22:56;15.50;99.90
17565;DHT22;62994;52.126;5.596;2022-10-19T12:25:27;15.60;99.90
17565;DHT22;62994;52.126;5.596;2022-10-19T12:27:54;15.70;99.90
17565;DHT22;62994;52.126;5.596;2022-10-19T12:30:24;15.80;99.90
17565;DHT22;62994;52.126;5.596;2022-10-19T12:33:06;15.80;99.90
17565;DHT22;62994;52.126;5.596;2022-10-19T12:38:44;15.90;99.90
17565;DHT22;62994;52.126;5.596;2022-10-19T12:41:21;16.10;99.90
17565;DHT22;62994;52.126;5.596;2022-10-19T12:44:05;16.20;99.90
17565;DHT22;62994;52.126;5.596;2022-10-19T12:46:41;16.30;99.90
17565;DHT22;62994;52.126;5.596;2022-10-19T12:49:47;16.30;99.90
17565;DHT22;62994;52.126;5.596;2022-10-19T12:52:33;16.40;99.90
17565;DHT22;62994;52.126;5.596;2022-10-19T12:55:25;16.50;99.90
17565;DHT22;62994;52.126;5.596;2022-10-19T12:58:03;16.60;99.90
17565;DHT22;62994;52.126;5.596;2022-10-19T13:00:34;16.50;99.90
17565;DHT22;62994;52.126;5.596;2022-10-19T13:03:12;16.50;99.90
17565;DHT22;62994;52.126;5.596;2022-10-19T13:05:55;16.60;99.90
17565;DHT22;62994;52.126;5.596;2022-10-19T13:08:26;16.60;99.90
17565;DHT22;62994;52.126;5.596;2022-10-19T13:11:04;16.70;99.90
17565;DHT22;62994;52.126;5.596;2022-10-19T13:14:05;16.70;99.90
17565;DHT22;62994;52.126;5.596;2022-10-19T13:17:00;16.80;99.90
17565;DHT22;62994;52.126;5.596;2022-10-19T13:19:28;16.80;99.90
17565;DHT22;62994;52.126;5.596;2022-10-19T13:25:20;16.80;99.90
17565;DHT22;62994;52.126;5.596;2022-10-19T13:28:00;16.80;99.90
17565;DHT22;62994;52.126;5.596;2022-10-19T13:30:57;16.90;99.90
17565;DHT22;62994;52.126;5.596;2022-10-19T13:33:50;16.90;99.90
17565;DHT22;62994;52.126;5.596;2022-10-19T13:36:19;17.00;99.90
17565;DHT22;62994;52.126;5.596;2022-10-19T13:39:12;16.90;99.90
17565;DHT22;62994;52.126;5.596;2022-10-19T13:41:51;16.80;99.90
17565;DHT22;62994;52.126;5.596;2022-10-19T13:44:23;16.80;99.90
17565;DHT22;62994;52.126;5.596;2022-10-19T13:50:33;16.80;99.90
17565;DHT22;62994;52.126;5.596;2022-10-19T13:53:34;16.80;99.90
17565;DHT22;62994;52.126;5.596;2022-10-19T13:56:27;16.90;99.90
17565;DHT22;62994;52.126;5.596;2022-10-19T13:59:25;16.80;99.90
17565;DHT22;62994;52.126;5.596;2022-10-19T14:02:19;16.80;99.90
17565;DHT22;62994;52.126;5.596;2022-10-19T14:05:08;16.80;99.90
17565;DHT22;62994;52.126;5.596;2022-10-19T14:07:47;16.60;99.90
17565;DHT22;62994;52.126;5.596;2022-10-19T14:10:20;16.40;99.90
17565;DHT22;62994;52.126;5.596;2022-10-19T14:12:50;16.20;99.90
17565;DHT22;62994;52.126;5.596;2022-10-19T14:15:24;16.20;99.90
17565;DHT22;62994;52.126;5.596;2022-10-19T14:17:54;16.00;99.90
17565;DHT22;62994;52.126;5.596;2022-10-19T14:20:27;16.00;99.90
17565;DHT22;62994;52.126;5.596;2022-10-19T14:22:55;16.00;99.90
17565;DHT22;62994;52.126;5.596;2022-10-19T14:25:24;15.80;99.90
17565;DHT22;62994;52.126;5.596;2022-10-19T14:27:58;15.80;99.90
17565;DHT22;62994;52.126;5.596;2022-10-19T14:30:33;15.70;99.90
17565;DHT22;62994;52.126;5.596;2022-10-19T14:33:16;15.50;99.90
17565;DHT22;62994;52.126;5.596;2022-10-19T14:35:48;15.50;99.90
17565;DHT22;62994;52.126;5.596;2022-10-19T14:38:20;15.40;99.90
17565;DHT22;62994;52.126;5.596;2022-10-19T14:40:52;15.40;99.90
17565;DHT22;62994;52.126;5.596;2022-10-19T14:43:23;15.30;99.90
17565;DHT22;62994;52.126;5.596;2022-10-19T14:46:12;15.30;99.90
17565;DHT22;62994;52.126;5.596;2022-10-19T14:48:46;15.40;99.90
17565;DHT22;62994;52.126;5.596;2022-10-19T14:51:20;15.30;99.90
17565;DHT22;62994;52.126;5.596;2022-10-19T14:53:52;15.40;99.90
17565;DHT22;62994;52.126;5.596;2022-10-19T14:56:26;15.30;99.90
17565;DHT22;62994;52.126;5.596;2022-10-19T14:59:03;15.30;99.90
17565;DHT22;62994;52.126;5.596;2022-10-19T15:01:39;15.30;99.90
17565;DHT22;62994;52.126;5.596;2022-10-19T15:04:18;15.20;99.90
17565;DHT22;62994;52.126;5.596;2022-10-19T15:06:48;15.30;99.90
17565;DHT22;62994;52.126;5.596;2022-10-19T15:09:25;15.20;99.90
17565;DHT22;62994;52.126;5.596;2022-10-19T15:12:04;15.20;99.90
17565;DHT22;62994;52.126;5.596;2022-10-19T15:14:36;15.20;99.90
17565;DHT22;62994;52.126;5.596;2022-10-19T15:17:20;15.10;99.90
17565;DHT22;62994;52.126;5.596;2022-10-19T15:19:58;15.10;99.90
17565;DHT22;62994;52.126;5.596;2022-10-19T15:22:41;15.00;99.90
17565;DHT22;62994;52.126;5.596;2022-10-19T15:25:29;14.90;99.90
17565;DHT22;62994;52.126;5.596;2022-10-19T15:28:20;14.90;99.90
17565;DHT22;62994;52.126;5.596;2022-10-19T15:31:03;14.90;99.90
17565;DHT22;62994;52.126;5.596;2022-10-19T15:33:37;14.80;99.90
17565;DHT22;62994;52.126;5.596;2022-10-19T15:36:21;14.80;99.90
17565;DHT22;62994;52.126;5.596;2022-10-19T15:39:06;14.70;99.90
17565;DHT22;62994;52.126;5.596;2022-10-19T15:41:37;14.70;99.90
17565;DHT22;62994;52.126;5.596;2022-10-19T15:44:30;14.70;99.90
17565;DHT22;62994;52.126;5.596;2022-10-19T15:47:17;14.60;99.90
17565;DHT22;62994;52.126;5.596;2022-10-19T15:49:56;14.60;99.90
17565;DHT22;62994;52.126;5.596;2022-10-19T15:52:28;14.50;99.90
17565;DHT22;62994;52.126;5.596;2022-10-19T15:55:01;14.50;99.90
17565;DHT22;62994;52.126;5.596;2022-10-19T15:57:30;14.40;99.90
17565;DHT22;62994;52.126;5.596;2022-10-19T16:00:04;14.50;99.90
17565;DHT22;62994;52.126;5.596;2022-10-19T16:02:33;14.40;99.90
17565;DHT22;62994;52.126;5.596;2022-10-19T16:05:03;14.40;99.90
17565;DHT22;62994;52.126;5.596;2022-10-19T16:07:37;14.40;99.90
17565;DHT22;62994;52.126;5.596;2022-10-19T16:10:16;14.30;99.90
17565;DHT22;62994;52.126;5.596;2022-10-19T16:12:44;14.30;99.90
17565;DHT22;62994;52.126;5.596;2022-10-19T16:15:12;14.20;99.90
17565;DHT22;62994;52.126;5.596;2022-10-19T16:17:42;14.20;99.90
17565;DHT22;62994;52.126;5.596;2022-10-19T16:20:12;14.10;99.90
17565;DHT22;62994;52.126;5.596;2022-10-19T16:22:45;14.10;99.90
17565;DHT22;62994;52.126;5.596;2022-10-19T16:25:16;14.00;99.90
17565;DHT22;62994;52.126;5.596;2022-10-19T16:27:45;13.90;99.90
17565;DHT22;62994;52.126;5.596;2022-10-19T16:30:13;13.90;99.90
17565;DHT22;62994;52.126;5.596;2022-10-19T16:32:40;13.80;99.90
17565;DHT22;62994;52.126;5.596;2022-10-19T16:35:09;13.70;99.90
17565;DHT22;62994;52.126;5.596;2022-10-19T16:37:43;13.70;99.90
17565;DHT22;62994;52.126;5.596;2022-10-19T16:40:12;13.70;99.90
17565;DHT22;62994;52.126;5.596;2022-10-19T16:42:44;13.70;99.90
17565;DHT22;62994;52.126;5.596;2022-10-19T16:45:15;13.60;99.90
17565;DHT22;62994;52.126;5.596;2022-10-19T16:47:43;13.70;99.90
17565;DHT22;62994;52.126;5.596;2022-10-19T16:50:16;13.60;99.90
17565;DHT22;62994;52.126;5.596;2022-10-19T16:52:45;13.60;99.90
17565;DHT22;62994;52.126;5.596;2022-10-19T16:55:13;13.70;99.90
17565;DHT22;62994;52.126;5.596;2022-10-19T16:57:41;13.60;99.90
17565;DHT22;62994;52.126;5.596;2022-10-19T17:00:13;13.60;99.90
17565;DHT22;62994;52.126;5.596;2022-10-19T17:02:45;13.60;99.90
17565;DHT22;62994;52.126;5.596;2022-10-19T17:05:17;13.50;99.90
17565;DHT22;62994;52.126;5.596;2022-10-19T17:07:49;13.50;99.90
17565;DHT22;62994;52.126;5.596;2022-10-19T17:10:19;13.50;99.90
17565;DHT22;62994;52.126;5.596;2022-10-19T17:12:46;13.40;99.90
17565;DHT22;62994;52.126;5.596;2022-10-19T17:15:16;13.40;99.90
17565;DHT22;62994;52.126;5.596;2022-10-19T17:17:57;13.30;99.90
17565;DHT22;62994;52.126;5.596;2022-10-19T17:20:26;13.20;99.90